Tallulah, LA

12:52 PM CST on March 03, 2015 (GMT -0600)
Vicksburg Tallulah Regional | Change Station
CLOSE
Current Station
Airport
Location: Vicksburg,
Elevation: 85 ft
Nearby Weather Stations

Elev 85 ft 32.35 °N, 91.03 °W | Updated 59 minutes ago

Overcast
Overcast
72 °F
Feels Like 72 °F
N
7
Wind Variable Wind from South
Gusts 17 mph

Today
High -- | Low -- °F
--% Chance of Precip.
Yesterday
High -- | Low -- °F
Precip. -- in
6:29 AM 6:03 PM
Waxing Gibbous, 97% visible
Pressure 30.08 in
Visibility 10.0 miles
Clouds Mostly Cloudy 1800 ft
Mostly Cloudy 2500 ft
Overcast 5500 ft
Dew Point 65 °F
Humidity 78%
Rainfall 0.00 in
Snow Depth Not available.
UV 2 out of 12
Pollen 8.10 out of 12
Air Quality Not available.
Flu Activity Not available.
METAR KTVR 031753Z AUTO 19006G15KT 10SM BKN018 BKN025 OVC055 22/18 A3006 RMK AO2 SLP185 T02220183 10233 20083 58014

More Conditions Fewer Conditions

Pressure 30.08 in
Visibility 10.0 miles
Clouds Mostly Cloudy 1800 ft
Mostly Cloudy 2500 ft
Overcast 5500 ft
Dew Point 65 °F
Humidity 78%
Rainfall 0.00 in
Snow Depth Not available.
UV 2 out of 12
Pollen 8.10 out of 12
Air Quality Not available.
Flu Activity Not available.
METAR KTVR 031753Z AUTO 19006G15KT 10SM BKN018 BKN025 OVC055 22/18 A3006 RMK AO2 SLP185 T02220183 10233 20083 58014

More Conditions Fewer Conditions

10-Day Weather Forecast

Almanac

Astronomy

Mar. 03, 2015 Rise Set
Actual Time
Civil Twilight
Nautical Twilight
Astronomical Twilight
Moon
Length of Visible Light
Length of Day
Tomorrow will be .
, % of the Moon is Illuminated

Today's Extremes

State Highs State Lows

Community

WunderPhotos

Upload Photos

1,802,198 photos uploaded!

WunderBlogs® & News

Nearby

Air Quality

  Air Quality AQ Index Pollutant
Not available.

Snow Depth

Station Depth Elevation

Earthquake Activity

City Distance Mag. Time & Date
Minimum magnitude displayed is 2.5.

Coastal Water Temperatures

Place Temperature

Nearby Weather Stations